createdAt,value
2018-05-14T00:01:22.256Z,16.40
2018-05-14T00:03:51.372Z,16.30
2018-05-14T00:06:19.587Z,16.20
2018-05-14T00:08:47.892Z,16.30
2018-05-14T00:11:16.145Z,16.00
2018-05-14T00:13:45.182Z,16.00
2018-05-14T00:16:13.438Z,16.00
2018-05-14T00:18:41.693Z,16.10
2018-05-14T00:21:10.727Z,16.10
2018-05-14T00:23:38.974Z,16.10
2018-05-14T00:26:08.083Z,16.10
2018-05-14T00:28:37.808Z,16.00
2018-05-14T00:31:06.646Z,15.90
2018-05-14T00:33:34.904Z,16.00
2018-05-14T00:36:03.135Z,16.00
2018-05-14T00:38:31.384Z,15.90
2018-05-14T00:40:59.627Z,15.80
2018-05-14T00:43:28.643Z,15.90
2018-05-14T00:45:56.891Z,15.90
2018-05-14T00:48:26.016Z,15.90
2018-05-14T00:50:54.287Z,15.80
2018-05-14T00:53:22.585Z,15.90
2018-05-14T00:55:50.843Z,16.00
2018-05-14T00:58:19.892Z,16.20
2018-05-14T01:00:48.123Z,16.20
2018-05-14T01:03:16.390Z,16.00
2018-05-14T01:05:44.628Z,15.90
2018-05-14T01:08:12.887Z,16.00
2018-05-14T01:10:41.116Z,16.10
2018-05-14T01:13:09.390Z,16.10
2018-05-14T01:15:37.641Z,16.00
2018-05-14T01:18:05.928Z,16.30
2018-05-14T01:20:35.604Z,16.30
2018-05-14T01:23:03.889Z,16.20
2018-05-14T01:25:32.148Z,16.20
2018-05-14T01:28:01.194Z,16.20
2018-05-14T01:30:30.293Z,16.20
2018-05-14T01:32:58.568Z,16.20
2018-05-14T01:35:26.819Z,16.10
2018-05-14T01:37:55.940Z,16.20
2018-05-14T01:40:24.209Z,16.20
2018-05-14T01:42:53.237Z,16.20
2018-05-14T01:45:21.500Z,16.10
2018-05-14T01:47:50.353Z,16.20
2018-05-14T01:50:18.653Z,16.20
2018-05-14T01:52:47.657Z,16.20
2018-05-14T01:55:16.697Z,16.30
2018-05-14T01:57:44.960Z,16.30
2018-05-14T02:00:13.214Z,16.50
2018-05-14T02:02:42.244Z,16.30
2018-05-14T02:05:12.722Z,16.30
2018-05-14T02:07:41.013Z,16.20
2018-05-14T02:10:09.292Z,16.40
2018-05-14T02:12:37.534Z,16.30
2018-05-14T02:15:05.819Z,16.20
2018-05-14T02:17:34.055Z,16.30
2018-05-14T02:20:03.657Z,16.20
2018-05-14T02:22:31.888Z,16.20
2018-05-14T02:25:00.224Z,16.40
2018-05-14T02:27:28.474Z,16.30
2018-05-14T02:29:57.084Z,16.40
2018-05-14T02:32:25.324Z,16.40
2018-05-14T02:34:53.565Z,16.30
2018-05-14T02:37:22.100Z,16.50
2018-05-14T02:39:51.141Z,16.40
2018-05-14T02:42:20.183Z,16.40
2018-05-14T02:44:48.444Z,16.40
2018-05-14T02:47:18.812Z,16.40
2018-05-14T02:49:47.069Z,16.40
2018-05-14T02:52:15.326Z,16.40
2018-05-14T02:54:44.339Z,16.50
2018-05-14T02:57:12.607Z,16.40
2018-05-14T02:59:40.849Z,16.50
2018-05-14T03:02:09.108Z,16.50
2018-05-14T03:04:37.364Z,16.60
2018-05-14T03:07:07.024Z,16.40
2018-05-14T03:09:35.367Z,16.40
2018-05-14T03:12:04.327Z,16.60
2018-05-14T03:14:33.436Z,16.60
2018-05-14T03:17:02.464Z,16.40
2018-05-14T03:19:30.695Z,16.40
2018-05-14T03:21:59.904Z,16.40
2018-05-14T03:24:28.146Z,16.50
2018-05-14T03:26:56.403Z,16.50
2018-05-14T03:29:24.635Z,16.50
2018-05-14T03:31:52.897Z,16.50
2018-05-14T03:34:21.589Z,16.50
2018-05-14T03:36:51.073Z,16.30
2018-05-14T03:39:19.357Z,16.30
2018-05-14T03:41:47.728Z,16.30
2018-05-14T03:44:15.983Z,16.30
2018-05-14T03:46:45.012Z,16.50
2018-05-14T03:49:13.279Z,16.40
2018-05-14T03:51:42.307Z,16.70
2018-05-14T03:54:11.160Z,16.70
2018-05-14T03:56:40.192Z,16.60
2018-05-14T03:59:20.292Z,16.60
2018-05-14T04:02:13.111Z,16.60
2018-05-14T04:04:53.187Z,16.60
2018-05-14T04:07:22.248Z,16.40
2018-05-14T04:09:50.490Z,16.40
2018-05-14T04:12:19.502Z,16.50
2018-05-14T04:14:47.780Z,16.50
2018-05-14T04:17:16.042Z,16.60
2018-05-14T04:19:45.058Z,16.70
2018-05-14T04:22:13.316Z,16.70
2018-05-14T04:24:42.324Z,16.60
2018-05-14T04:27:11.360Z,16.70
2018-05-14T04:29:39.645Z,16.70
2018-05-14T04:32:08.172Z,16.70
2018-05-14T04:34:36.434Z,16.80
2018-05-14T04:37:04.693Z,16.80
2018-05-14T04:39:32.938Z,17.00
2018-05-14T04:42:01.960Z,17.30
2018-05-14T04:44:30.198Z,17.30
2018-05-14T04:46:58.456Z,17.30
2018-05-14T04:49:26.708Z,17.20
2018-05-14T04:51:55.013Z,17.00
2018-05-14T04:54:23.309Z,17.00
2018-05-14T04:56:51.643Z,17.10
2018-05-14T04:59:19.912Z,17.00
2018-05-14T05:01:48.141Z,17.10
2018-05-14T05:04:17.160Z,17.20
2018-05-14T05:06:45.437Z,17.20
2018-05-14T05:09:13.691Z,17.10
2018-05-14T05:11:41.970Z,17.10
2018-05-14T05:14:10.191Z,17.30
2018-05-14T05:16:38.451Z,17.40
2018-05-14T05:19:06.792Z,17.40
2018-05-14T05:21:35.046Z,17.40
2018-05-14T05:24:04.055Z,17.50
2018-05-14T05:26:33.096Z,17.40
2018-05-14T05:29:01.347Z,17.40
2018-05-14T05:31:29.618Z,17.70
2018-05-14T05:33:58.693Z,17.80
2018-05-14T05:36:26.947Z,17.80
2018-05-14T05:38:55.333Z,17.80
2018-05-14T05:41:23.602Z,18.00
2018-05-14T05:43:51.859Z,17.90
2018-05-14T05:46:20.121Z,18.00
2018-05-14T05:48:49.157Z,17.90
2018-05-14T05:51:17.405Z,17.90
2018-05-14T05:53:48.114Z,18.10
2018-05-14T05:56:16.365Z,18.10
2018-05-14T05:58:44.665Z,18.10
2018-05-14T06:01:13.016Z,18.20
2018-05-14T06:03:41.196Z,18.20
2018-05-14T06:06:10.309Z,18.30
2018-05-14T06:08:38.659Z,18.30
2018-05-14T06:11:06.943Z,18.30
2018-05-14T06:13:35.218Z,18.40
2018-05-14T06:16:04.252Z,18.30
2018-05-14T06:18:32.485Z,18.30
2018-05-14T06:21:02.237Z,18.30
2018-05-14T06:23:30.503Z,18.30
2018-05-14T06:25:59.280Z,18.40
2018-05-14T06:28:28.894Z,18.40
2018-05-14T06:30:57.935Z,18.50
2018-05-14T06:33:26.199Z,18.50
2018-05-14T06:35:54.465Z,18.60
2018-05-14T06:38:22.720Z,18.50
2018-05-14T06:40:51.728Z,18.70
2018-05-14T06:43:20.789Z,18.70
2018-05-14T06:45:49.030Z,18.70
2018-05-14T06:48:17.307Z,18.90
2018-05-14T06:50:45.570Z,18.90
2018-05-14T06:53:14.587Z,18.90
2018-05-14T06:55:42.935Z,18.90
2018-05-14T06:58:11.203Z,19.10
2018-05-14T07:00:39.444Z,19.10
2018-05-14T07:03:08.646Z,19.20
2018-05-14T07:05:36.788Z,19.30
2018-05-14T07:08:05.811Z,19.70
2018-05-14T07:10:34.056Z,19.70
2018-05-14T07:13:02.344Z,19.80
2018-05-14T07:15:30.920Z,20.00
2018-05-14T07:17:59.436Z,20.00
2018-05-14T07:20:28.456Z,20.20
2018-05-14T07:22:56.724Z,20.20
2018-05-14T07:25:24.956Z,20.50
2018-05-14T07:27:53.323Z,20.80
2018-05-14T07:30:21.578Z,20.70
2018-05-14T07:32:49.843Z,20.80
2018-05-14T07:35:18.880Z,21.90
2018-05-14T07:37:47.139Z,21.90
2018-05-14T07:40:15.373Z,22.30
2018-05-14T07:42:43.629Z,22.30
2018-05-14T07:45:12.515Z,22.60
2018-05-14T07:47:40.743Z,22.60
2018-05-14T07:50:09.067Z,22.50
2018-05-14T07:52:37.312Z,22.70
2018-05-14T07:55:06.353Z,23.10
2018-05-14T07:57:34.596Z,23.10
2018-05-14T08:00:03.617Z,24.00
2018-05-14T08:02:31.865Z,24.00
2018-05-14T08:05:01.701Z,24.60
2018-05-14T08:07:30.749Z,24.40
2018-05-14T08:09:59.470Z,24.40
2018-05-14T08:12:27.722Z,24.10
2018-05-14T08:14:56.038Z,24.30
2018-05-14T08:17:24.291Z,24.50
2018-05-14T08:19:52.572Z,24.60
2018-05-14T08:22:20.832Z,24.90
2018-05-14T08:24:49.083Z,24.80
2018-05-14T08:27:17.343Z,24.50
2018-05-14T08:29:47.198Z,24.10
2018-05-14T08:32:15.445Z,24.10
2018-05-14T08:34:44.472Z,25.00
2018-05-14T08:37:12.868Z,25.00
2018-05-14T08:39:41.797Z,25.50
2018-05-14T08:42:11.058Z,25.50
2018-05-14T08:44:39.425Z,25.70
2018-05-14T08:47:08.896Z,24.90
2018-05-14T08:49:37.225Z,24.90
2018-05-14T08:52:05.713Z,24.90
2018-05-14T08:54:35.122Z,25.30
2018-05-14T08:57:03.232Z,25.30
2018-05-14T08:59:31.479Z,25.50
2018-05-14T09:01:59.784Z,25.40
2018-05-14T09:04:28.035Z,25.80
2018-05-14T09:06:56.278Z,26.00
2018-05-14T09:09:25.307Z,25.90
2018-05-14T09:11:54.356Z,26.20
2018-05-14T09:14:22.631Z,26.20
2018-05-14T09:16:51.915Z,26.40
2018-05-14T09:19:20.215Z,26.20
2018-05-14T09:21:48.464Z,26.40
2018-05-14T09:24:16.729Z,26.70
2018-05-14T09:26:45.746Z,27.20
2018-05-14T09:29:14.084Z,27.20
2018-05-14T09:31:42.333Z,27.50
2018-05-14T09:34:10.588Z,27.60
2018-05-14T09:36:38.853Z,27.90
2018-05-14T09:39:07.862Z,28.50
2018-05-14T09:41:36.944Z,28.60
2018-05-14T09:44:05.220Z,28.60
2018-05-14T09:46:33.464Z,28.80
2018-05-14T09:49:02.300Z,28.50
2018-05-14T09:51:31.350Z,28.80
2018-05-14T09:53:59.594Z,28.80
2018-05-14T09:56:28.618Z,29.20
2018-05-14T09:58:56.920Z,29.10
2018-05-14T10:01:25.191Z,29.00
2018-05-14T10:03:53.427Z,29.10
2018-05-14T10:06:22.487Z,29.30
2018-05-14T10:08:51.636Z,29.30
2018-05-14T10:11:20.700Z,29.40
2018-05-14T10:13:48.931Z,29.40
2018-05-14T10:16:17.204Z,29.60
2018-05-14T10:18:46.237Z,30.10
2018-05-14T10:21:14.481Z,30.00
2018-05-14T10:23:42.741Z,29.90
2018-05-14T10:26:11.147Z,29.90
2018-05-14T10:28:40.156Z,30.30
2018-05-14T10:31:08.444Z,30.30
2018-05-14T10:33:36.684Z,30.50
2018-05-14T10:36:04.954Z,30.60
2018-05-14T10:38:33.210Z,30.70
2018-05-14T10:41:01.506Z,30.80
2018-05-14T10:43:30.397Z,30.90
2018-05-14T10:45:58.684Z,31.20
2018-05-14T10:48:27.696Z,31.50
2018-05-14T10:50:56.387Z,31.50
2018-05-14T10:53:24.650Z,31.40
2018-05-14T10:55:52.981Z,31.30
2018-05-14T10:58:21.983Z,31.10
2018-05-14T11:00:50.257Z,31.10
2018-05-14T11:03:19.268Z,31.10
2018-05-14T11:05:47.551Z,31.10
2018-05-14T11:08:15.848Z,31.30
2018-05-14T11:10:44.131Z,31.10
2018-05-14T11:13:12.371Z,31.20
2018-05-14T11:15:41.432Z,31.50
2018-05-14T11:18:10.421Z,31.50
2018-05-14T11:20:39.474Z,31.60
2018-05-14T11:23:07.726Z,31.60
2018-05-14T11:25:35.972Z,31.70
2018-05-14T11:30:48.412Z,31.90
2018-05-14T11:33:16.680Z,32.00
2018-05-14T11:35:45.017Z,31.20
2018-05-14T11:38:13.324Z,31.30
2018-05-14T11:40:42.433Z,31.40
2018-05-14T11:43:10.819Z,31.30
2018-05-14T11:45:39.087Z,31.30
2018-05-14T11:48:08.685Z,31.60
2018-05-14T11:50:37.696Z,31.90
2018-05-14T11:53:05.962Z,31.90
2018-05-14T11:55:34.976Z,32.00
2018-05-14T11:58:03.229Z,31.90
2018-05-14T12:00:31.541Z,32.10
2018-05-14T12:03:00.596Z,31.80
2018-05-14T12:05:28.808Z,31.80
2018-05-14T12:07:57.812Z,32.20
2018-05-14T12:10:26.092Z,32.20
2018-05-14T12:12:54.356Z,32.30
2018-05-14T12:15:23.430Z,32.10
2018-05-14T12:17:51.677Z,32.10
2018-05-14T12:20:19.958Z,31.80
2018-05-14T12:22:48.201Z,31.80
2018-05-14T12:25:16.895Z,31.90
2018-05-14T12:27:45.157Z,31.80
2018-05-14T12:30:13.400Z,31.50
2018-05-14T12:32:41.681Z,31.90
2018-05-14T12:35:09.918Z,31.80
2018-05-14T12:37:39.967Z,31.90
2018-05-14T12:40:08.877Z,31.80
2018-05-14T12:42:37.611Z,31.60
2018-05-14T12:45:05.845Z,31.70
2018-05-14T12:47:34.091Z,31.80
2018-05-14T12:50:03.095Z,32.10
2018-05-14T12:52:32.096Z,32.20
2018-05-14T12:55:01.123Z,32.10
2018-05-14T12:57:29.373Z,32.10
2018-05-14T12:59:58.426Z,31.60
2018-05-14T13:02:26.640Z,31.50
2018-05-14T13:04:54.893Z,31.70
2018-05-14T13:07:23.162Z,31.60
2018-05-14T13:09:51.389Z,31.50
2018-05-14T13:12:25.731Z,31.70
2018-05-14T13:14:54.736Z,31.50
2018-05-14T13:17:23.018Z,31.50
2018-05-14T13:19:51.282Z,31.60
2018-05-14T13:22:20.308Z,31.60
2018-05-14T13:24:48.528Z,31.60
2018-05-14T13:27:16.784Z,31.60
2018-05-14T13:29:45.060Z,31.60
2018-05-14T13:32:14.208Z,31.40
2018-05-14T13:34:42.498Z,31.30
2018-05-14T13:37:11.990Z,31.20
2018-05-14T13:39:40.271Z,31.20
2018-05-14T13:42:09.277Z,31.00
2018-05-14T13:44:38.343Z,30.80
2018-05-14T13:47:06.657Z,30.80
2018-05-14T13:49:34.936Z,30.80
2018-05-14T13:52:03.310Z,31.00
2018-05-14T13:54:31.770Z,30.70
2018-05-14T13:57:00.024Z,30.60
2018-05-14T13:59:28.335Z,30.80
2018-05-14T14:01:56.565Z,30.80
2018-05-14T14:04:25.638Z,30.80
2018-05-14T14:06:54.620Z,30.90
2018-05-14T14:09:23.045Z,30.90
2018-05-14T14:11:51.365Z,30.80
2018-05-14T14:14:20.525Z,30.60
2018-05-14T14:16:49.549Z,30.60
2018-05-14T14:19:17.912Z,30.60
2018-05-14T14:21:46.920Z,30.80
2018-05-14T14:24:16.896Z,30.70
2018-05-14T14:26:45.668Z,30.70
2018-05-14T14:29:13.901Z,30.60
2018-05-14T14:31:44.163Z,30.40
2018-05-14T14:34:13.394Z,30.40
2018-05-14T14:36:44.533Z,30.40
2018-05-14T14:39:12.789Z,30.40
2018-05-14T14:41:41.126Z,30.20
2018-05-14T14:44:09.376Z,30.10
2018-05-14T14:46:38.368Z,29.80
2018-05-14T14:49:06.752Z,29.80
2018-05-14T14:51:36.567Z,29.90
2018-05-14T14:54:05.092Z,29.80
2018-05-14T14:56:34.259Z,29.90
2018-05-14T14:59:02.509Z,29.80
2018-05-14T15:01:31.513Z,29.50
2018-05-14T15:03:59.775Z,29.50
2018-05-14T15:06:28.826Z,29.50
2018-05-14T15:08:57.118Z,29.50
2018-05-14T15:11:25.376Z,29.50
2018-05-14T15:13:53.623Z,29.40
2018-05-14T15:16:22.777Z,29.30
2018-05-14T15:18:51.025Z,29.30
2018-05-14T15:21:19.285Z,29.10
2018-05-14T15:23:48.304Z,28.60
2018-05-14T15:26:16.564Z,28.60
2018-05-14T15:28:45.663Z,28.30
2018-05-14T15:31:13.925Z,28.30
2018-05-14T15:33:43.773Z,27.80
2018-05-14T15:36:12.759Z,27.80
2018-05-14T15:38:41.798Z,27.50
2018-05-14T15:41:10.765Z,27.50
2018-05-14T15:43:39.762Z,27.30
2018-05-14T15:46:08.800Z,27.30
2018-05-14T15:48:37.090Z,27.20
2018-05-14T15:51:06.217Z,27.10
2018-05-14T15:53:34.957Z,27.10
2018-05-14T15:56:03.209Z,27.10
2018-05-14T15:58:32.232Z,27.00
2018-05-14T16:01:00.483Z,27.00
2018-05-14T16:03:29.647Z,27.00
2018-05-14T16:05:57.931Z,27.00
2018-05-14T16:08:26.206Z,27.00
2018-05-14T16:10:54.458Z,27.10
2018-05-14T16:13:22.718Z,27.20
2018-05-14T16:15:51.737Z,26.90
2018-05-14T16:18:20.868Z,26.90
2018-05-14T16:20:49.213Z,26.70
2018-05-14T16:23:17.360Z,26.50
2018-05-14T16:25:45.638Z,26.30
2018-05-14T16:28:14.507Z,26.10
2018-05-14T16:30:42.760Z,25.90
2018-05-14T16:33:11.522Z,25.70
2018-05-14T16:35:40.560Z,25.40
2018-05-14T16:38:08.793Z,25.30
2018-05-14T16:40:37.049Z,25.30
2018-05-14T16:43:05.303Z,25.40
2018-05-14T16:45:33.554Z,25.40
2018-05-14T16:48:02.586Z,25.40
2018-05-14T16:50:30.838Z,25.30
2018-05-14T16:52:59.932Z,25.40
2018-05-14T16:55:28.931Z,25.30
2018-05-14T16:57:58.054Z,25.30
2018-05-14T17:00:26.985Z,25.30
2018-05-14T17:02:55.263Z,25.30
2018-05-14T17:05:23.530Z,25.30
2018-05-14T17:07:52.061Z,25.20
2018-05-14T17:10:21.109Z,25.20
2018-05-14T17:12:50.064Z,25.10
2018-05-14T17:15:19.590Z,25.00
2018-05-14T17:17:49.220Z,25.00
2018-05-14T17:20:17.468Z,25.00
2018-05-14T17:22:46.929Z,24.90
2018-05-14T17:25:15.777Z,24.90
2018-05-14T17:27:44.827Z,24.80
2018-05-14T17:30:13.057Z,24.80
2018-05-14T17:32:42.101Z,24.70
2018-05-14T17:35:10.436Z,24.70
2018-05-14T17:37:39.460Z,24.60
2018-05-14T17:40:08.176Z,24.60
2018-05-14T17:42:36.450Z,24.60
2018-05-14T17:45:04.706Z,24.50
2018-05-14T17:47:32.968Z,24.50
2018-05-14T17:50:02.062Z,24.40
2018-05-14T17:52:30.440Z,24.30
2018-05-14T17:54:58.673Z,24.30
2018-05-14T17:57:26.911Z,24.30
2018-05-14T17:59:56.042Z,24.20
2018-05-14T18:02:24.292Z,24.10
2018-05-14T18:04:53.341Z,24.10
2018-05-14T18:07:21.643Z,24.10
2018-05-14T18:09:49.880Z,24.00
2018-05-14T18:12:18.594Z,24.00
2018-05-14T18:14:46.823Z,23.90
2018-05-14T18:17:15.132Z,23.80
2018-05-14T18:19:49.017Z,23.80
2018-05-14T18:22:23.602Z,23.70
2018-05-14T18:24:51.833Z,23.60
2018-05-14T18:27:26.524Z,23.60
2018-05-14T18:29:54.755Z,23.50
2018-05-14T18:32:23.040Z,23.50
2018-05-14T18:34:56.128Z,23.40
2018-05-14T18:37:24.468Z,23.30
2018-05-14T18:39:52.755Z,23.30
2018-05-14T18:42:21.741Z,23.20
2018-05-14T18:44:50.024Z,23.10
2018-05-14T18:47:18.282Z,22.90
2018-05-14T18:49:46.545Z,22.70
2018-05-14T18:52:14.800Z,22.60
2018-05-14T18:54:44.677Z,22.30
2018-05-14T18:57:12.920Z,22.30
2018-05-14T18:59:41.173Z,22.20
2018-05-14T19:02:10.177Z,21.90
2018-05-14T19:04:39.264Z,21.80
2018-05-14T19:07:07.487Z,21.70
2018-05-14T19:09:35.799Z,21.70
2018-05-14T19:12:04.056Z,21.60
2018-05-14T19:14:32.326Z,21.60
2018-05-14T19:17:06.333Z,21.50
2018-05-14T19:19:34.633Z,21.50
2018-05-14T19:22:03.187Z,21.40
2018-05-14T19:24:31.428Z,21.40
2018-05-14T19:27:01.004Z,21.30
2018-05-14T19:29:34.269Z,21.20
2018-05-14T19:32:03.341Z,21.10
2018-05-14T19:34:37.344Z,21.10
2018-05-14T19:37:05.599Z,21.00
2018-05-14T19:39:39.616Z,21.00
2018-05-14T19:42:07.872Z,20.90
2018-05-14T19:44:36.913Z,20.90
2018-05-14T19:47:05.224Z,20.80
2018-05-14T19:49:33.508Z,20.70
2018-05-14T19:52:01.782Z,20.90
2018-05-14T19:54:30.748Z,20.90
2018-05-14T19:56:59.007Z,20.90
2018-05-14T19:59:28.174Z,20.80
2018-05-14T20:01:56.398Z,20.70
2018-05-14T20:04:25.114Z,20.70
2018-05-14T20:06:53.437Z,20.80
2018-05-14T20:09:21.712Z,20.80
2018-05-14T20:11:49.940Z,20.80
2018-05-14T20:14:18.216Z,20.80
2018-05-14T20:16:46.461Z,20.80
2018-05-14T20:19:16.276Z,20.80
2018-05-14T20:21:45.300Z,20.80
2018-05-14T20:24:13.551Z,20.80
2018-05-14T20:26:42.745Z,20.80
2018-05-14T20:29:12.297Z,20.90
2018-05-14T20:31:40.541Z,20.80
2018-05-14T20:34:09.572Z,20.80
2018-05-14T20:36:37.870Z,20.80
2018-05-14T20:39:06.146Z,20.80
2018-05-14T20:41:34.401Z,20.90
2018-05-14T20:44:03.436Z,20.80
2018-05-14T20:46:31.679Z,20.80
2018-05-14T20:49:00.768Z,20.70
2018-05-14T20:51:29.768Z,20.70
2018-05-14T20:53:58.825Z,20.80
2018-05-14T20:56:27.076Z,20.70
2018-05-14T20:58:55.787Z,20.70
2018-05-14T21:01:24.040Z,20.60
2018-05-14T21:03:52.300Z,20.60
2018-05-14T21:06:21.320Z,20.30
2018-05-14T21:08:49.561Z,20.30
2018-05-14T21:11:17.830Z,20.20
2018-05-14T21:13:46.059Z,20.10
2018-05-14T21:16:14.308Z,20.00
2018-05-14T21:18:42.559Z,20.20
2018-05-14T21:21:11.159Z,20.20
2018-05-14T21:23:40.025Z,20.10
2018-05-14T21:26:08.297Z,20.00
2018-05-14T21:28:36.537Z,19.90
2018-05-14T21:31:04.787Z,19.90
2018-05-14T21:33:33.277Z,19.90
2018-05-14T21:36:01.495Z,20.00
2018-05-14T21:38:30.489Z,20.00
2018-05-14T21:40:59.536Z,19.90
2018-05-14T21:43:28.410Z,19.90
2018-05-14T21:45:56.677Z,19.70
2018-05-14T21:48:25.687Z,19.60
2018-05-14T21:50:54.745Z,19.40
2018-05-14T21:53:22.967Z,19.40
2018-05-14T21:55:51.235Z,19.30
2018-05-14T21:58:20.256Z,19.10
2018-05-14T22:00:48.498Z,19.10
2018-05-14T22:03:17.542Z,18.90
2018-05-14T22:05:50.513Z,18.90
2018-05-14T22:08:18.759Z,18.90
2018-05-14T22:10:47.014Z,18.90
2018-05-14T22:13:15.271Z,18.80
2018-05-14T22:15:43.994Z,18.70
2018-05-14T22:18:12.260Z,18.60
2018-05-14T22:20:40.561Z,18.60
2018-05-14T22:23:08.769Z,18.60
2018-05-14T22:25:37.785Z,18.70
2018-05-14T22:28:06.789Z,18.80
2018-05-14T22:30:35.036Z,18.80
2018-05-14T22:33:03.328Z,18.70
2018-05-14T22:35:32.915Z,18.70
2018-05-14T22:38:01.197Z,18.70
2018-05-14T22:40:29.464Z,18.70
2018-05-14T22:42:58.182Z,18.70
2018-05-14T22:45:26.433Z,18.90
2018-05-14T22:47:55.579Z,18.80
2018-05-14T22:50:24.572Z,18.80
2018-05-14T22:52:53.594Z,18.80
2018-05-14T22:55:26.540Z,18.80
2018-05-14T22:57:54.813Z,18.80
2018-05-14T23:00:24.793Z,18.80
2018-05-14T23:02:53.947Z,19.00
2018-05-14T23:05:22.216Z,18.90
2018-05-14T23:07:50.499Z,18.70
2018-05-14T23:10:19.877Z,18.70
2018-05-14T23:12:48.115Z,18.80
2018-05-14T23:15:17.207Z,18.90
2018-05-14T23:17:45.467Z,18.90
2018-05-14T23:20:13.732Z,18.80
2018-05-14T23:22:42.860Z,18.90
2018-05-14T23:25:11.117Z,19.00
2018-05-14T23:27:39.580Z,19.00
2018-05-14T23:30:07.831Z,18.90
2018-05-14T23:32:36.872Z,18.70
2018-05-14T23:35:05.118Z,18.70
2018-05-14T23:37:34.195Z,18.50
2018-05-14T23:40:02.430Z,18.50
2018-05-14T23:42:30.696Z,18.40
2018-05-14T23:44:58.948Z,18.30
2018-05-14T23:47:27.969Z,18.60
2018-05-14T23:49:56.212Z,18.50
2018-05-14T23:52:25.185Z,18.60
2018-05-14T23:54:53.938Z,18.50
2018-05-14T23:57:22.176Z,18.30
2018-05-14T23:59:50.771Z,18.50
